sensor_id;sensor_type;location;lat;lon;timestamp;P1;durP1;ratioP1;P2;durP2;ratioP2
4112;SDS011;2070;51.042;7.056;2022-12-18T00:00:33;9.33;;;5.30;;
4112;SDS011;2070;51.042;7.056;2022-12-18T00:02:58;12.40;;;7.27;;
4112;SDS011;2070;51.042;7.056;2022-12-18T00:05:23;17.03;;;6.57;;
4112;SDS011;2070;51.042;7.056;2022-12-18T00:07:49;22.43;;;6.27;;
4112;SDS011;2070;51.042;7.056;2022-12-18T00:10:14;12.10;;;5.63;;
4112;SDS011;2070;51.042;7.056;2022-12-18T00:12:39;11.73;;;4.57;;
4112;SDS011;2070;51.042;7.056;2022-12-18T00:15:04;17.73;;;5.90;;
4112;SDS011;2070;51.042;7.056;2022-12-18T00:17:30;17.70;;;6.23;;
4112;SDS011;2070;51.042;7.056;2022-12-18T00:19:55;14.97;;;5.60;;
4112;SDS011;2070;51.042;7.056;2022-12-18T00:22:20;12.93;;;4.70;;
4112;SDS011;2070;51.042;7.056;2022-12-18T00:24:45;8.70;;;5.60;;
4112;SDS011;2070;51.042;7.056;2022-12-18T00:27:11;9.10;;;4.83;;
4112;SDS011;2070;51.042;7.056;2022-12-18T00:29:39;6.53;;;5.10;;
4112;SDS011;2070;51.042;7.056;2022-12-18T00:32:05;11.70;;;5.83;;
4112;SDS011;2070;51.042;7.056;2022-12-18T00:34:30;12.00;;;6.13;;
4112;SDS011;2070;51.042;7.056;2022-12-18T00:36:55;14.73;;;5.83;;
4112;SDS011;2070;51.042;7.056;2022-12-18T00:39:20;7.90;;;5.07;;
4112;SDS011;2070;51.042;7.056;2022-12-18T00:41:45;10.47;;;6.03;;
4112;SDS011;2070;51.042;7.056;2022-12-18T00:44:29;13.93;;;6.47;;
4112;SDS011;2070;51.042;7.056;2022-12-18T00:46:55;14.50;;;5.17;;
4112;SDS011;2070;51.042;7.056;2022-12-18T00:49:20;8.30;;;4.83;;
4112;SDS011;2070;51.042;7.056;2022-12-18T00:51:45;11.03;;;6.70;;
4112;SDS011;2070;51.042;7.056;2022-12-18T00:54:11;10.03;;;6.43;;
4112;SDS011;2070;51.042;7.056;2022-12-18T00:56:36;12.87;;;5.10;;
4112;SDS011;2070;51.042;7.056;2022-12-18T00:59:02;18.40;;;6.50;;
4112;SDS011;2070;51.042;7.056;2022-12-18T01:01:27;11.37;;;5.87;;
4112;SDS011;2070;51.042;7.056;2022-12-18T01:03:52;17.00;;;5.87;;
4112;SDS011;2070;51.042;7.056;2022-12-18T01:06:17;10.73;;;5.33;;
4112;SDS011;2070;51.042;7.056;2022-12-18T01:08:43;9.37;;;4.43;;
4112;SDS011;2070;51.042;7.056;2022-12-18T01:11:14;9.97;;;4.53;;
4112;SDS011;2070;51.042;7.056;2022-12-18T01:13:40;9.97;;;5.23;;
4112;SDS011;2070;51.042;7.056;2022-12-18T01:16:06;19.33;;;4.63;;
4112;SDS011;2070;51.042;7.056;2022-12-18T01:18:31;8.27;;;4.50;;
4112;SDS011;2070;51.042;7.056;2022-12-18T01:20:56;12.63;;;5.03;;
4112;SDS011;2070;51.042;7.056;2022-12-18T01:23:21;12.17;;;6.13;;
4112;SDS011;2070;51.042;7.056;2022-12-18T01:25:47;8.97;;;4.80;;
4112;SDS011;2070;51.042;7.056;2022-12-18T01:28:12;20.90;;;8.20;;
4112;SDS011;2070;51.042;7.056;2022-12-18T01:30:37;10.47;;;5.90;;
4112;SDS011;2070;51.042;7.056;2022-12-18T01:33:04;14.53;;;5.07;;
4112;SDS011;2070;51.042;7.056;2022-12-18T01:35:29;13.20;;;5.50;;
4112;SDS011;2070;51.042;7.056;2022-12-18T01:37:54;10.77;;;5.03;;
4112;SDS011;2070;51.042;7.056;2022-12-18T01:40:20;10.13;;;6.37;;
4112;SDS011;2070;51.042;7.056;2022-12-18T01:42:49;7.80;;;4.63;;
4112;SDS011;2070;51.042;7.056;2022-12-18T01:52:32;6.70;;;4.57;;
4112;SDS011;2070;51.042;7.056;2022-12-18T01:54:58;10.43;;;5.70;;
4112;SDS011;2070;51.042;7.056;2022-12-18T01:57:24;18.53;;;5.93;;
4112;SDS011;2070;51.042;7.056;2022-12-18T01:59:52;11.13;;;5.23;;
4112;SDS011;2070;51.042;7.056;2022-12-18T02:02:17;15.13;;;5.50;;
4112;SDS011;2070;51.042;7.056;2022-12-18T02:04:43;16.57;;;4.63;;
4112;SDS011;2070;51.042;7.056;2022-12-18T02:09:34;10.63;;;4.53;;
4112;SDS011;2070;51.042;7.056;2022-12-18T02:14:45;9.13;;;5.00;;
4112;SDS011;2070;51.042;7.056;2022-12-18T02:17:15;13.70;;;5.47;;
4112;SDS011;2070;51.042;7.056;2022-12-18T02:19:44;9.93;;;3.87;;
4112;SDS011;2070;51.042;7.056;2022-12-18T02:24:59;9.97;;;5.77;;
4112;SDS011;2070;51.042;7.056;2022-12-18T02:27:28;15.87;;;5.60;;
4112;SDS011;2070;51.042;7.056;2022-12-18T02:29:55;7.90;;;4.50;;
4112;SDS011;2070;51.042;7.056;2022-12-18T02:32:24;9.00;;;4.23;;
4112;SDS011;2070;51.042;7.056;2022-12-18T02:34:50;11.40;;;5.00;;
4112;SDS011;2070;51.042;7.056;2022-12-18T02:37:17;8.23;;;3.63;;
4112;SDS011;2070;51.042;7.056;2022-12-18T02:39:43;6.33;;;4.73;;
4112;SDS011;2070;51.042;7.056;2022-12-18T02:42:09;12.80;;;5.57;;
4112;SDS011;2070;51.042;7.056;2022-12-18T02:44:35;13.67;;;5.50;;
4112;SDS011;2070;51.042;7.056;2022-12-18T02:47:08;6.57;;;4.53;;
4112;SDS011;2070;51.042;7.056;2022-12-18T02:57:12;11.40;;;4.83;;
4112;SDS011;2070;51.042;7.056;2022-12-18T02:59:41;7.83;;;3.90;;
4112;SDS011;2070;51.042;7.056;2022-12-18T03:02:21;6.30;;;3.97;;
4112;SDS011;2070;51.042;7.056;2022-12-18T03:04:54;8.87;;;3.60;;
4112;SDS011;2070;51.042;7.056;2022-12-18T03:07:23;4.10;;;3.70;;
4112;SDS011;2070;51.042;7.056;2022-12-18T03:09:50;4.53;;;2.83;;
4112;SDS011;2070;51.042;7.056;2022-12-18T03:12:24;8.47;;;5.23;;
4112;SDS011;2070;51.042;7.056;2022-12-18T03:17:20;14.00;;;5.57;;
4112;SDS011;2070;51.042;7.056;2022-12-18T03:19:47;9.27;;;3.47;;
4112;SDS011;2070;51.042;7.056;2022-12-18T03:22:14;10.50;;;3.53;;
4112;SDS011;2070;51.042;7.056;2022-12-18T03:24:41;14.20;;;4.27;;
4112;SDS011;2070;51.042;7.056;2022-12-18T03:27:07;6.10;;;3.40;;
4112;SDS011;2070;51.042;7.056;2022-12-18T03:29:35;14.40;;;5.60;;
4112;SDS011;2070;51.042;7.056;2022-12-18T03:32:04;6.93;;;3.10;;
4112;SDS011;2070;51.042;7.056;2022-12-18T03:34:31;6.10;;;4.10;;
4112;SDS011;2070;51.042;7.056;2022-12-18T03:36:57;10.13;;;4.53;;
4112;SDS011;2070;51.042;7.056;2022-12-18T03:39:22;16.83;;;5.07;;
4112;SDS011;2070;51.042;7.056;2022-12-18T03:41:51;6.57;;;3.93;;
4112;SDS011;2070;51.042;7.056;2022-12-18T03:44:20;6.47;;;4.03;;
4112;SDS011;2070;51.042;7.056;2022-12-18T03:49:21;8.17;;;4.23;;
4112;SDS011;2070;51.042;7.056;2022-12-18T03:51:59;8.43;;;4.03;;
4112;SDS011;2070;51.042;7.056;2022-12-18T03:54:26;5.37;;;3.20;;
4112;SDS011;2070;51.042;7.056;2022-12-18T03:56:55;8.00;;;4.23;;
4112;SDS011;2070;51.042;7.056;2022-12-18T03:59:21;10.47;;;4.23;;
4112;SDS011;2070;51.042;7.056;2022-12-18T04:01:47;11.70;;;5.10;;
4112;SDS011;2070;51.042;7.056;2022-12-18T04:04:14;4.33;;;3.30;;
4112;SDS011;2070;51.042;7.056;2022-12-18T04:06:40;5.33;;;3.03;;
4112;SDS011;2070;51.042;7.056;2022-12-18T04:09:06;5.43;;;3.40;;
4112;SDS011;2070;51.042;7.056;2022-12-18T04:11:32;8.07;;;4.03;;
4112;SDS011;2070;51.042;7.056;2022-12-18T04:13:57;7.20;;;3.90;;
4112;SDS011;2070;51.042;7.056;2022-12-18T04:16:23;6.23;;;3.20;;
4112;SDS011;2070;51.042;7.056;2022-12-18T04:18:48;3.23;;;2.73;;
4112;SDS011;2070;51.042;7.056;2022-12-18T04:21:13;6.30;;;3.27;;
4112;SDS011;2070;51.042;7.056;2022-12-18T04:23:38;4.33;;;3.30;;
4112;SDS011;2070;51.042;7.056;2022-12-18T04:26:04;7.07;;;3.83;;
4112;SDS011;2070;51.042;7.056;2022-12-18T04:28:29;5.27;;;2.90;;
4112;SDS011;2070;51.042;7.056;2022-12-18T04:30:54;8.93;;;4.40;;
4112;SDS011;2070;51.042;7.056;2022-12-18T04:33:19;7.00;;;4.20;;
4112;SDS011;2070;51.042;7.056;2022-12-18T04:35:45;13.27;;;3.00;;
4112;SDS011;2070;51.042;7.056;2022-12-18T04:38:10;11.80;;;4.10;;
4112;SDS011;2070;51.042;7.056;2022-12-18T04:40:36;9.13;;;3.87;;
4112;SDS011;2070;51.042;7.056;2022-12-18T04:43:02;13.33;;;4.30;;
4112;SDS011;2070;51.042;7.056;2022-12-18T04:45:27;8.60;;;4.40;;
4112;SDS011;2070;51.042;7.056;2022-12-18T04:47:52;5.57;;;4.83;;
4112;SDS011;2070;51.042;7.056;2022-12-18T04:50:17;4.20;;;2.87;;
4112;SDS011;2070;51.042;7.056;2022-12-18T04:52:42;4.53;;;3.63;;
4112;SDS011;2070;51.042;7.056;2022-12-18T04:55:08;4.40;;;3.40;;
4112;SDS011;2070;51.042;7.056;2022-12-18T04:57:33;9.90;;;3.73;;
4112;SDS011;2070;51.042;7.056;2022-12-18T04:59:58;7.50;;;3.23;;
4112;SDS011;2070;51.042;7.056;2022-12-18T05:02:23;5.20;;;3.90;;
4112;SDS011;2070;51.042;7.056;2022-12-18T05:04:48;6.77;;;3.73;;
4112;SDS011;2070;51.042;7.056;2022-12-18T05:07:14;7.77;;;4.30;;
4112;SDS011;2070;51.042;7.056;2022-12-18T05:09:39;10.00;;;4.63;;
4112;SDS011;2070;51.042;7.056;2022-12-18T05:12:04;12.67;;;4.03;;
4112;SDS011;2070;51.042;7.056;2022-12-18T05:14:29;3.37;;;2.23;;
4112;SDS011;2070;51.042;7.056;2022-12-18T05:16:55;6.47;;;3.37;;
4112;SDS011;2070;51.042;7.056;2022-12-18T05:19:20;6.03;;;3.57;;
4112;SDS011;2070;51.042;7.056;2022-12-18T05:21:45;7.33;;;2.77;;
4112;SDS011;2070;51.042;7.056;2022-12-18T05:24:10;8.20;;;3.77;;
4112;SDS011;2070;51.042;7.056;2022-12-18T05:26:36;4.93;;;3.20;;
4112;SDS011;2070;51.042;7.056;2022-12-18T05:29:01;10.97;;;3.93;;
4112;SDS011;2070;51.042;7.056;2022-12-18T05:31:26;3.30;;;3.03;;
4112;SDS011;2070;51.042;7.056;2022-12-18T05:33:52;8.43;;;4.77;;
4112;SDS011;2070;51.042;7.056;2022-12-18T05:36:17;6.00;;;4.60;;
4112;SDS011;2070;51.042;7.056;2022-12-18T05:38:42;7.67;;;3.67;;
4112;SDS011;2070;51.042;7.056;2022-12-18T05:41:08;4.87;;;3.60;;
4112;SDS011;2070;51.042;7.056;2022-12-18T05:43:34;9.67;;;4.00;;
4112;SDS011;2070;51.042;7.056;2022-12-18T05:46:02;5.90;;;3.30;;
4112;SDS011;2070;51.042;7.056;2022-12-18T05:48:28;9.77;;;3.17;;
4112;SDS011;2070;51.042;7.056;2022-12-18T05:50:53;5.13;;;3.30;;
4112;SDS011;2070;51.042;7.056;2022-12-18T05:53:19;8.07;;;3.80;;
4112;SDS011;2070;51.042;7.056;2022-12-18T05:55:45;6.70;;;3.17;;
4112;SDS011;2070;51.042;7.056;2022-12-18T05:58:11;9.27;;;4.40;;
4112;SDS011;2070;51.042;7.056;2022-12-18T06:00:38;8.50;;;3.50;;
4112;SDS011;2070;51.042;7.056;2022-12-18T06:03:07;9.77;;;4.60;;
4112;SDS011;2070;51.042;7.056;2022-12-18T06:05:39;9.40;;;4.93;;
4112;SDS011;2070;51.042;7.056;2022-12-18T06:08:05;7.07;;;4.50;;
4112;SDS011;2070;51.042;7.056;2022-12-18T06:10:30;5.33;;;3.63;;
4112;SDS011;2070;51.042;7.056;2022-12-18T06:12:55;8.30;;;4.27;;
4112;SDS011;2070;51.042;7.056;2022-12-18T06:15:20;4.73;;;3.93;;
4112;SDS011;2070;51.042;7.056;2022-12-18T06:17:45;9.37;;;4.10;;
4112;SDS011;2070;51.042;7.056;2022-12-18T06:20:11;5.27;;;3.70;;
4112;SDS011;2070;51.042;7.056;2022-12-18T06:22:36;11.10;;;3.73;;
4112;SDS011;2070;51.042;7.056;2022-12-18T06:25:01;5.63;;;4.10;;
4112;SDS011;2070;51.042;7.056;2022-12-18T06:27:26;17.13;;;4.33;;
4112;SDS011;2070;51.042;7.056;2022-12-18T06:29:52;7.00;;;4.77;;
4112;SDS011;2070;51.042;7.056;2022-12-18T06:32:17;14.20;;;5.47;;
4112;SDS011;2070;51.042;7.056;2022-12-18T06:34:42;10.40;;;4.87;;
4112;SDS011;2070;51.042;7.056;2022-12-18T06:37:07;11.17;;;4.93;;
4112;SDS011;2070;51.042;7.056;2022-12-18T06:39:32;12.20;;;5.37;;
4112;SDS011;2070;51.042;7.056;2022-12-18T06:41:58;8.80;;;4.83;;
4112;SDS011;2070;51.042;7.056;2022-12-18T06:44:23;9.40;;;4.53;;
4112;SDS011;2070;51.042;7.056;2022-12-18T06:46:48;18.73;;;5.53;;
4112;SDS011;2070;51.042;7.056;2022-12-18T06:49:13;9.50;;;4.90;;
4112;SDS011;2070;51.042;7.056;2022-12-18T06:51:39;8.03;;;5.33;;
4112;SDS011;2070;51.042;7.056;2022-12-18T06:54:04;7.53;;;4.80;;
4112;SDS011;2070;51.042;7.056;2022-12-18T06:56:29;10.70;;;4.50;;
4112;SDS011;2070;51.042;7.056;2022-12-18T06:58:54;7.10;;;3.93;;
4112;SDS011;2070;51.042;7.056;2022-12-18T07:01:20;15.63;;;4.67;;
4112;SDS011;2070;51.042;7.056;2022-12-18T07:03:45;10.63;;;4.20;;
4112;SDS011;2070;51.042;7.056;2022-12-18T07:06:14;11.57;;;4.53;;
4112;SDS011;2070;51.042;7.056;2022-12-18T07:08:39;9.43;;;5.53;;
4112;SDS011;2070;51.042;7.056;2022-12-18T07:11:05;10.40;;;4.70;;
4112;SDS011;2070;51.042;7.056;2022-12-18T07:13:30;9.03;;;4.50;;
4112;SDS011;2070;51.042;7.056;2022-12-18T07:15:55;7.40;;;4.37;;
4112;SDS011;2070;51.042;7.056;2022-12-18T07:18:27;16.90;;;5.43;;
4112;SDS011;2070;51.042;7.056;2022-12-18T07:20:52;8.03;;;4.47;;
4112;SDS011;2070;51.042;7.056;2022-12-18T07:23:17;9.10;;;4.90;;
4112;SDS011;2070;51.042;7.056;2022-12-18T07:25:42;12.33;;;5.80;;
4112;SDS011;2070;51.042;7.056;2022-12-18T07:28:08;10.60;;;4.90;;
4112;SDS011;2070;51.042;7.056;2022-12-18T07:30:33;9.07;;;4.53;;
4112;SDS011;2070;51.042;7.056;2022-12-18T07:32:58;9.30;;;4.30;;
4112;SDS011;2070;51.042;7.056;2022-12-18T07:35:23;7.67;;;5.07;;
4112;SDS011;2070;51.042;7.056;2022-12-18T07:37:48;12.40;;;5.67;;
4112;SDS011;2070;51.042;7.056;2022-12-18T07:40:14;9.83;;;4.93;;
4112;SDS011;2070;51.042;7.056;2022-12-18T07:42:39;14.63;;;6.30;;
4112;SDS011;2070;51.042;7.056;2022-12-18T07:45:04;8.93;;;4.80;;
4112;SDS011;2070;51.042;7.056;2022-12-18T07:47:31;11.17;;;4.73;;
4112;SDS011;2070;51.042;7.056;2022-12-18T07:49:58;8.50;;;4.53;;
4112;SDS011;2070;51.042;7.056;2022-12-18T07:52:23;10.67;;;5.17;;
4112;SDS011;2070;51.042;7.056;2022-12-18T07:54:49;10.23;;;4.93;;
4112;SDS011;2070;51.042;7.056;2022-12-18T07:57:15;10.57;;;5.67;;
4112;SDS011;2070;51.042;7.056;2022-12-18T07:59:41;7.77;;;5.20;;
4112;SDS011;2070;51.042;7.056;2022-12-18T08:02:06;24.47;;;6.73;;
4112;SDS011;2070;51.042;7.056;2022-12-18T08:04:31;14.53;;;6.47;;
4112;SDS011;2070;51.042;7.056;2022-12-18T08:06:56;17.43;;;8.23;;
4112;SDS011;2070;51.042;7.056;2022-12-18T08:09:21;10.93;;;5.80;;
4112;SDS011;2070;51.042;7.056;2022-12-18T08:11:47;15.20;;;7.10;;
4112;SDS011;2070;51.042;7.056;2022-12-18T08:14:12;11.23;;;5.83;;
4112;SDS011;2070;51.042;7.056;2022-12-18T08:16:37;10.70;;;5.33;;
4112;SDS011;2070;51.042;7.056;2022-12-18T08:19:02;15.70;;;6.17;;
4112;SDS011;2070;51.042;7.056;2022-12-18T08:21:28;11.27;;;4.53;;
4112;SDS011;2070;51.042;7.056;2022-12-18T08:23:55;9.20;;;5.67;;
4112;SDS011;2070;51.042;7.056;2022-12-18T08:26:21;11.27;;;5.03;;
4112;SDS011;2070;51.042;7.056;2022-12-18T08:28:46;7.70;;;5.60;;
4112;SDS011;2070;51.042;7.056;2022-12-18T08:31:11;8.27;;;5.07;;
4112;SDS011;2070;51.042;7.056;2022-12-18T08:33:37;18.13;;;7.50;;
4112;SDS011;2070;51.042;7.056;2022-12-18T08:36:03;21.53;;;8.60;;
4112;SDS011;2070;51.042;7.056;2022-12-18T08:38:29;14.33;;;7.07;;
4112;SDS011;2070;51.042;7.056;2022-12-18T08:41:04;17.47;;;6.33;;
4112;SDS011;2070;51.042;7.056;2022-12-18T08:43:29;9.27;;;6.07;;
4112;SDS011;2070;51.042;7.056;2022-12-18T08:46:13;15.13;;;6.53;;
4112;SDS011;2070;51.042;7.056;2022-12-18T08:48:38;17.87;;;7.20;;
4112;SDS011;2070;51.042;7.056;2022-12-18T08:51:04;11.47;;;6.43;;
4112;SDS011;2070;51.042;7.056;2022-12-18T08:53:29;13.53;;;5.63;;
4112;SDS011;2070;51.042;7.056;2022-12-18T08:55:56;11.20;;;6.90;;
4112;SDS011;2070;51.042;7.056;2022-12-18T08:58:21;14.83;;;7.10;;
4112;SDS011;2070;51.042;7.056;2022-12-18T09:00:46;13.27;;;5.90;;
4112;SDS011;2070;51.042;7.056;2022-12-18T09:03:12;9.87;;;5.70;;
4112;SDS011;2070;51.042;7.056;2022-12-18T09:05:38;11.43;;;6.73;;
4112;SDS011;2070;51.042;7.056;2022-12-18T09:08:03;10.77;;;6.43;;
4112;SDS011;2070;51.042;7.056;2022-12-18T09:10:28;6.20;;;4.53;;
4112;SDS011;2070;51.042;7.056;2022-12-18T09:12:53;10.30;;;6.40;;
4112;SDS011;2070;51.042;7.056;2022-12-18T09:15:18;6.50;;;4.10;;
4112;SDS011;2070;51.042;7.056;2022-12-18T09:17:43;8.10;;;5.10;;
4112;SDS011;2070;51.042;7.056;2022-12-18T09:20:09;18.47;;;6.50;;
4112;SDS011;2070;51.042;7.056;2022-12-18T09:22:34;8.27;;;5.30;;
4112;SDS011;2070;51.042;7.056;2022-12-18T09:24:59;18.20;;;6.40;;
4112;SDS011;2070;51.042;7.056;2022-12-18T09:27:24;11.40;;;5.83;;
4112;SDS011;2070;51.042;7.056;2022-12-18T09:29:50;11.13;;;5.47;;
4112;SDS011;2070;51.042;7.056;2022-12-18T09:32:15;6.77;;;4.50;;
4112;SDS011;2070;51.042;7.056;2022-12-18T09:34:40;16.67;;;5.80;;
4112;SDS011;2070;51.042;7.056;2022-12-18T09:37:05;11.10;;;6.70;;
4112;SDS011;2070;51.042;7.056;2022-12-18T09:39:31;10.77;;;4.50;;
4112;SDS011;2070;51.042;7.056;2022-12-18T09:41:57;8.27;;;4.00;;
4112;SDS011;2070;51.042;7.056;2022-12-18T09:49:17;11.10;;;5.73;;
4112;SDS011;2070;51.042;7.056;2022-12-18T09:54:22;10.23;;;5.50;;
4112;SDS011;2070;51.042;7.056;2022-12-18T09:56:47;11.80;;;6.07;;
4112;SDS011;2070;51.042;7.056;2022-12-18T10:01:41;14.37;;;6.50;;
4112;SDS011;2070;51.042;7.056;2022-12-18T10:04:08;10.70;;;5.40;;
4112;SDS011;2070;51.042;7.056;2022-12-18T10:09:00;8.70;;;6.00;;
4112;SDS011;2070;51.042;7.056;2022-12-18T10:11:38;6.23;;;3.27;;
4112;SDS011;2070;51.042;7.056;2022-12-18T10:16:47;12.27;;;4.80;;
4112;SDS011;2070;51.042;7.056;2022-12-18T10:22:03;10.37;;;6.20;;
4112;SDS011;2070;51.042;7.056;2022-12-18T10:27:09;9.13;;;5.07;;
4112;SDS011;2070;51.042;7.056;2022-12-18T10:29:35;7.40;;;4.27;;
4112;SDS011;2070;51.042;7.056;2022-12-18T10:32:01;10.67;;;5.50;;
4112;SDS011;2070;51.042;7.056;2022-12-18T10:34:26;9.40;;;5.40;;
4112;SDS011;2070;51.042;7.056;2022-12-18T10:36:51;9.23;;;4.93;;
4112;SDS011;2070;51.042;7.056;2022-12-18T10:39:20;10.33;;;5.30;;
4112;SDS011;2070;51.042;7.056;2022-12-18T10:41:57;10.60;;;5.13;;
4112;SDS011;2070;51.042;7.056;2022-12-18T10:44:33;12.87;;;5.73;;
4112;SDS011;2070;51.042;7.056;2022-12-18T10:47:02;9.37;;;5.93;;
4112;SDS011;2070;51.042;7.056;2022-12-18T10:49:29;8.30;;;4.43;;
4112;SDS011;2070;51.042;7.056;2022-12-18T10:52:05;12.93;;;7.63;;
4112;SDS011;2070;51.042;7.056;2022-12-18T10:54:30;14.10;;;5.80;;
4112;SDS011;2070;51.042;7.056;2022-12-18T10:57:13;11.77;;;5.20;;
4112;SDS011;2070;51.042;7.056;2022-12-18T10:59:49;12.10;;;5.67;;
4112;SDS011;2070;51.042;7.056;2022-12-18T11:02:26;15.50;;;6.57;;
4112;SDS011;2070;51.042;7.056;2022-12-18T11:04:52;9.03;;;4.97;;
4112;SDS011;2070;51.042;7.056;2022-12-18T11:07:17;6.03;;;4.07;;
4112;SDS011;2070;51.042;7.056;2022-12-18T11:09:43;8.30;;;4.00;;
4112;SDS011;2070;51.042;7.056;2022-12-18T11:12:18;13.00;;;6.20;;
4112;SDS011;2070;51.042;7.056;2022-12-18T11:14:53;16.00;;;7.10;;
4112;SDS011;2070;51.042;7.056;2022-12-18T11:17:20;11.07;;;5.40;;
4112;SDS011;2070;51.042;7.056;2022-12-18T11:19:52;8.33;;;5.03;;
4112;SDS011;2070;51.042;7.056;2022-12-18T11:22:22;12.87;;;5.63;;
4112;SDS011;2070;51.042;7.056;2022-12-18T11:24:58;10.73;;;5.07;;
4112;SDS011;2070;51.042;7.056;2022-12-18T11:27:24;10.40;;;5.23;;
4112;SDS011;2070;51.042;7.056;2022-12-18T11:29:49;16.93;;;8.03;;
4112;SDS011;2070;51.042;7.056;2022-12-18T11:32:27;14.23;;;4.93;;
4112;SDS011;2070;51.042;7.056;2022-12-18T11:37:34;10.17;;;6.40;;
4112;SDS011;2070;51.042;7.056;2022-12-18T11:40:05;10.83;;;5.63;;
4112;SDS011;2070;51.042;7.056;2022-12-18T11:42:47;14.50;;;6.00;;
4112;SDS011;2070;51.042;7.056;2022-12-18T11:47:39;13.40;;;7.50;;
4112;SDS011;2070;51.042;7.056;2022-12-18T11:50:17;11.43;;;5.90;;
4112;SDS011;2070;51.042;7.056;2022-12-18T11:52:43;10.07;;;5.83;;
4112;SDS011;2070;51.042;7.056;2022-12-18T11:55:12;11.83;;;5.83;;
4112;SDS011;2070;51.042;7.056;2022-12-18T11:57:54;15.60;;;7.40;;
4112;SDS011;2070;51.042;7.056;2022-12-18T12:00:21;20.43;;;7.67;;
4112;SDS011;2070;51.042;7.056;2022-12-18T12:15:35;21.27;;;8.13;;
4112;SDS011;2070;51.042;7.056;2022-12-18T12:18:26;20.17;;;8.43;;
4112;SDS011;2070;51.042;7.056;2022-12-18T12:21:03;14.03;;;7.17;;
4112;SDS011;2070;51.042;7.056;2022-12-18T12:24:14;15.50;;;7.47;;
4112;SDS011;2070;51.042;7.056;2022-12-18T12:26:31;20.37;;;9.03;;
4112;SDS011;2070;51.042;7.056;2022-12-18T12:36:46;22.33;;;9.23;;
4112;SDS011;2070;51.042;7.056;2022-12-18T12:39:15;15.37;;;7.60;;
4112;SDS011;2070;51.042;7.056;2022-12-18T12:41:41;19.73;;;8.70;;
4112;SDS011;2070;51.042;7.056;2022-12-18T12:44:34;17.50;;;8.70;;
4112;SDS011;2070;51.042;7.056;2022-12-18T12:47:05;17.63;;;7.43;;
4112;SDS011;2070;51.042;7.056;2022-12-18T12:49:32;20.90;;;9.63;;
4112;SDS011;2070;51.042;7.056;2022-12-18T12:52:00;18.73;;;9.00;;
4112;SDS011;2070;51.042;7.056;2022-12-18T12:54:28;16.13;;;8.83;;
4112;SDS011;2070;51.042;7.056;2022-12-18T12:57:02;12.80;;;6.73;;
4112;SDS011;2070;51.042;7.056;2022-12-18T12:59:34;15.23;;;6.87;;
4112;SDS011;2070;51.042;7.056;2022-12-18T13:05:00;17.30;;;8.53;;
4112;SDS011;2070;51.042;7.056;2022-12-18T13:07:29;17.37;;;9.20;;
4112;SDS011;2070;51.042;7.056;2022-12-18T13:12:51;15.83;;;7.53;;
4112;SDS011;2070;51.042;7.056;2022-12-18T13:17:47;34.17;;;9.13;;
4112;SDS011;2070;51.042;7.056;2022-12-18T13:20:13;34.37;;;10.27;;
4112;SDS011;2070;51.042;7.056;2022-12-18T13:22:46;20.10;;;9.93;;
4112;SDS011;2070;51.042;7.056;2022-12-18T13:28:11;18.60;;;8.90;;
4112;SDS011;2070;51.042;7.056;2022-12-18T13:48:29;15.70;;;8.87;;
4112;SDS011;2070;51.042;7.056;2022-12-18T13:51:15;20.60;;;7.80;;
4112;SDS011;2070;51.042;7.056;2022-12-18T13:53:43;20.73;;;9.90;;
4112;SDS011;2070;51.042;7.056;2022-12-18T13:56:09;17.87;;;6.93;;
4112;SDS011;2070;51.042;7.056;2022-12-18T13:58:39;20.80;;;9.33;;
4112;SDS011;2070;51.042;7.056;2022-12-18T14:01:05;27.93;;;10.10;;
4112;SDS011;2070;51.042;7.056;2022-12-18T14:03:30;22.77;;;9.40;;
4112;SDS011;2070;51.042;7.056;2022-12-18T14:05:56;24.60;;;10.70;;
4112;SDS011;2070;51.042;7.056;2022-12-18T14:08:23;14.37;;;8.10;;
4112;SDS011;2070;51.042;7.056;2022-12-18T14:10:51;15.73;;;9.33;;
4112;SDS011;2070;51.042;7.056;2022-12-18T14:13:20;22.13;;;10.43;;
4112;SDS011;2070;51.042;7.056;2022-12-18T14:15:47;16.83;;;9.50;;
4112;SDS011;2070;51.042;7.056;2022-12-18T14:18:26;26.13;;;8.80;;
4112;SDS011;2070;51.042;7.056;2022-12-18T14:20:52;23.87;;;10.90;;
4112;SDS011;2070;51.042;7.056;2022-12-18T14:25:52;25.57;;;10.63;;
4112;SDS011;2070;51.042;7.056;2022-12-18T14:28:17;23.00;;;10.23;;
4112;SDS011;2070;51.042;7.056;2022-12-18T14:30:43;24.10;;;9.40;;
4112;SDS011;2070;51.042;7.056;2022-12-18T14:33:16;32.40;;;10.00;;
4112;SDS011;2070;51.042;7.056;2022-12-18T14:36:04;31.53;;;11.73;;
4112;SDS011;2070;51.042;7.056;2022-12-18T14:43:19;22.47;;;10.13;;
4112;SDS011;2070;51.042;7.056;2022-12-18T14:45:44;21.97;;;9.07;;
4112;SDS011;2070;51.042;7.056;2022-12-18T14:50:36;25.90;;;12.20;;
4112;SDS011;2070;51.042;7.056;2022-12-18T14:53:01;26.50;;;11.20;;
4112;SDS011;2070;51.042;7.056;2022-12-18T14:55:26;22.70;;;11.60;;
4112;SDS011;2070;51.042;7.056;2022-12-18T14:57:52;27.60;;;11.30;;
4112;SDS011;2070;51.042;7.056;2022-12-18T15:00:19;26.63;;;11.07;;
4112;SDS011;2070;51.042;7.056;2022-12-18T15:02:46;34.17;;;11.10;;
4112;SDS011;2070;51.042;7.056;2022-12-18T15:07:42;12.30;;;6.13;;
4112;SDS011;2070;51.042;7.056;2022-12-18T15:10:24;31.67;;;11.83;;
4112;SDS011;2070;51.042;7.056;2022-12-18T15:12:50;22.00;;;9.27;;
4112;SDS011;2070;51.042;7.056;2022-12-18T15:18:00;30.50;;;12.00;;
4112;SDS011;2070;51.042;7.056;2022-12-18T15:20:27;22.47;;;10.00;;
4112;SDS011;2070;51.042;7.056;2022-12-18T15:22:55;24.23;;;10.97;;
4112;SDS011;2070;51.042;7.056;2022-12-18T15:25:54;10.80;;;5.70;;
4112;SDS011;2070;51.042;7.056;2022-12-18T15:31:20;30.50;;;14.60;;
4112;SDS011;2070;51.042;7.056;2022-12-18T15:36:18;32.57;;;11.53;;
4112;SDS011;2070;51.042;7.056;2022-12-18T15:38:46;26.90;;;11.20;;
4112;SDS011;2070;51.042;7.056;2022-12-18T15:41:15;30.63;;;10.97;;
4112;SDS011;2070;51.042;7.056;2022-12-18T15:43:41;23.80;;;11.20;;
4112;SDS011;2070;51.042;7.056;2022-12-18T15:46:08;25.17;;;11.13;;
4112;SDS011;2070;51.042;7.056;2022-12-18T15:48:35;28.10;;;12.20;;
4112;SDS011;2070;51.042;7.056;2022-12-18T15:51:04;24.07;;;11.50;;
4112;SDS011;2070;51.042;7.056;2022-12-18T15:53:30;27.97;;;10.00;;
4112;SDS011;2070;51.042;7.056;2022-12-18T15:55:57;11.87;;;7.17;;
4112;SDS011;2070;51.042;7.056;2022-12-18T15:58:41;14.93;;;8.37;;
4112;SDS011;2070;51.042;7.056;2022-12-18T16:01:07;24.73;;;11.37;;
4112;SDS011;2070;51.042;7.056;2022-12-18T16:03:33;24.80;;;10.83;;
4112;SDS011;2070;51.042;7.056;2022-12-18T16:05:58;44.57;;;15.23;;
4112;SDS011;2070;51.042;7.056;2022-12-18T16:08:26;34.00;;;13.73;;
4112;SDS011;2070;51.042;7.056;2022-12-18T16:10:52;18.73;;;8.90;;
4112;SDS011;2070;51.042;7.056;2022-12-18T16:13:17;28.33;;;11.93;;
4112;SDS011;2070;51.042;7.056;2022-12-18T16:15:44;35.93;;;13.07;;
4112;SDS011;2070;51.042;7.056;2022-12-18T16:18:09;30.90;;;12.70;;
4112;SDS011;2070;51.042;7.056;2022-12-18T16:20:34;34.27;;;13.20;;
4112;SDS011;2070;51.042;7.056;2022-12-18T16:22:59;37.23;;;11.63;;
4112;SDS011;2070;51.042;7.056;2022-12-18T16:25:26;30.27;;;12.13;;
4112;SDS011;2070;51.042;7.056;2022-12-18T16:27:52;22.80;;;12.70;;
4112;SDS011;2070;51.042;7.056;2022-12-18T16:30:18;39.67;;;13.80;;
4112;SDS011;2070;51.042;7.056;2022-12-18T16:32:44;40.33;;;12.00;;
4112;SDS011;2070;51.042;7.056;2022-12-18T16:35:10;37.43;;;12.67;;
4112;SDS011;2070;51.042;7.056;2022-12-18T16:37:36;33.67;;;14.77;;
4112;SDS011;2070;51.042;7.056;2022-12-18T16:40:01;28.73;;;12.60;;
4112;SDS011;2070;51.042;7.056;2022-12-18T16:42:26;35.17;;;14.13;;
4112;SDS011;2070;51.042;7.056;2022-12-18T16:44:51;36.47;;;15.43;;
4112;SDS011;2070;51.042;7.056;2022-12-18T16:47:17;31.33;;;13.23;;
4112;SDS011;2070;51.042;7.056;2022-12-18T16:49:42;36.97;;;15.50;;
4112;SDS011;2070;51.042;7.056;2022-12-18T16:52:09;33.20;;;13.40;;
4112;SDS011;2070;51.042;7.056;2022-12-18T16:54:35;24.57;;;11.47;;
4112;SDS011;2070;51.042;7.056;2022-12-18T16:57:00;36.60;;;12.40;;
4112;SDS011;2070;51.042;7.056;2022-12-18T16:59:26;27.13;;;11.30;;
4112;SDS011;2070;51.042;7.056;2022-12-18T17:01:51;30.23;;;13.00;;
4112;SDS011;2070;51.042;7.056;2022-12-18T17:04:16;34.73;;;14.73;;
4112;SDS011;2070;51.042;7.056;2022-12-18T17:06:42;30.17;;;13.30;;
4112;SDS011;2070;51.042;7.056;2022-12-18T17:09:10;38.00;;;14.57;;